sensor_id;sensor_type;location;lat;lon;timestamp;P1;durP1;ratioP1;P2;durP2;ratioP2
24813;SDS011;12904;50.088;11.414;2023-11-21T00:02:19;1.58;;;1.02;;
24813;SDS011;12904;50.088;11.414;2023-11-21T00:04:46;2.20;;;0.98;;
24813;SDS011;12904;50.088;11.414;2023-11-21T00:07:13;2.85;;;2.10;;
24813;SDS011;12904;50.088;11.414;2023-11-21T00:09:39;1.88;;;0.93;;
24813;SDS011;12904;50.088;11.414;2023-11-21T00:12:06;4.03;;;1.00;;
24813;SDS011;12904;50.088;11.414;2023-11-21T00:14:35;3.20;;;0.95;;
24813;SDS011;12904;50.088;11.414;2023-11-21T00:17:03;1.52;;;1.42;;
24813;SDS011;12904;50.088;11.414;2023-11-21T00:19:30;2.03;;;1.20;;
24813;SDS011;12904;50.088;11.414;2023-11-21T00:21:56;2.63;;;1.48;;
24813;SDS011;12904;50.088;11.414;2023-11-21T00:24:23;3.72;;;1.35;;
24813;SDS011;12904;50.088;11.414;2023-11-21T00:26:49;1.80;;;1.50;;
24813;SDS011;12904;50.088;11.414;2023-11-21T00:29:16;2.25;;;1.67;;
24813;SDS011;12904;50.088;11.414;2023-11-21T00:31:42;3.70;;;2.38;;
24813;SDS011;12904;50.088;11.414;2023-11-21T00:34:10;3.83;;;1.98;;
24813;SDS011;12904;50.088;11.414;2023-11-21T00:36:36;4.60;;;2.00;;
24813;SDS011;12904;50.088;11.414;2023-11-21T00:39:02;3.13;;;1.85;;
24813;SDS011;12904;50.088;11.414;2023-11-21T00:41:28;2.58;;;1.60;;
24813;SDS011;12904;50.088;11.414;2023-11-21T00:43:54;3.40;;;1.70;;
24813;SDS011;12904;50.088;11.414;2023-11-21T00:46:20;2.50;;;1.55;;
24813;SDS011;12904;50.088;11.414;2023-11-21T00:48:46;4.22;;;1.80;;
24813;SDS011;12904;50.088;11.414;2023-11-21T00:51:11;6.57;;;2.10;;
24813;SDS011;12904;50.088;11.414;2023-11-21T00:53:37;6.07;;;2.00;;
24813;SDS011;12904;50.088;11.414;2023-11-21T00:56:03;2.40;;;1.50;;
24813;SDS011;12904;50.088;11.414;2023-11-21T00:58:29;3.50;;;1.50;;
24813;SDS011;12904;50.088;11.414;2023-11-21T01:00:55;7.55;;;1.60;;
24813;SDS011;12904;50.088;11.414;2023-11-21T01:03:21;2.85;;;1.30;;
24813;SDS011;12904;50.088;11.414;2023-11-21T01:05:46;2.70;;;1.33;;
24813;SDS011;12904;50.088;11.414;2023-11-21T01:08:14;1.88;;;1.00;;
24813;SDS011;12904;50.088;11.414;2023-11-21T01:10:40;2.35;;;1.00;;
24813;SDS011;12904;50.088;11.414;2023-11-21T01:13:06;1.35;;;1.10;;
24813;SDS011;12904;50.088;11.414;2023-11-21T01:15:32;3.80;;;1.75;;
24813;SDS011;12904;50.088;11.414;2023-11-21T01:17:58;2.63;;;1.27;;
24813;SDS011;12904;50.088;11.414;2023-11-21T01:20:24;3.65;;;1.20;;
24813;SDS011;12904;50.088;11.414;2023-11-21T01:22:51;3.92;;;1.10;;
24813;SDS011;12904;50.088;11.414;2023-11-21T01:25:16;3.92;;;1.02;;
24813;SDS011;12904;50.088;11.414;2023-11-21T01:27:42;3.03;;;1.00;;
24813;SDS011;12904;50.088;11.414;2023-11-21T01:30:08;2.08;;;1.17;;
24813;SDS011;12904;50.088;11.414;2023-11-21T01:32:37;2.05;;;1.00;;
24813;SDS011;12904;50.088;11.414;2023-11-21T01:35:04;2.00;;;1.25;;
24813;SDS011;12904;50.088;11.414;2023-11-21T01:37:31;1.55;;;1.08;;
24813;SDS011;12904;50.088;11.414;2023-11-21T01:39:58;3.10;;;1.10;;
24813;SDS011;12904;50.088;11.414;2023-11-21T01:42:24;3.28;;;1.10;;
24813;SDS011;12904;50.088;11.414;2023-11-21T01:44:49;4.28;;;1.27;;
24813;SDS011;12904;50.088;11.414;2023-11-21T01:47:15;3.78;;;1.10;;
24813;SDS011;12904;50.088;11.414;2023-11-21T01:49:43;1.83;;;1.30;;
24813;SDS011;12904;50.088;11.414;2023-11-21T01:52:10;5.32;;;1.30;;
24813;SDS011;12904;50.088;11.414;2023-11-21T01:54:36;5.40;;;2.10;;
24813;SDS011;12904;50.088;11.414;2023-11-21T01:57:03;2.15;;;1.60;;
24813;SDS011;12904;50.088;11.414;2023-11-21T01:59:34;3.22;;;1.92;;
24813;SDS011;12904;50.088;11.414;2023-11-21T02:02:02;5.60;;;2.70;;
24813;SDS011;12904;50.088;11.414;2023-11-21T02:04:34;6.53;;;1.83;;
24813;SDS011;12904;50.088;11.414;2023-11-21T02:07:04;2.90;;;1.50;;
24813;SDS011;12904;50.088;11.414;2023-11-21T02:09:30;2.45;;;1.60;;
24813;SDS011;12904;50.088;11.414;2023-11-21T02:11:58;3.75;;;2.03;;
24813;SDS011;12904;50.088;11.414;2023-11-21T02:14:24;3.53;;;1.55;;
24813;SDS011;12904;50.088;11.414;2023-11-21T02:16:51;4.05;;;1.60;;
24813;SDS011;12904;50.088;11.414;2023-11-21T02:19:19;2.35;;;1.30;;
24813;SDS011;12904;50.088;11.414;2023-11-21T02:21:50;3.70;;;1.77;;
24813;SDS011;12904;50.088;11.414;2023-11-21T02:24:26;5.07;;;1.80;;
24813;SDS011;12904;50.088;11.414;2023-11-21T02:26:52;4.00;;;1.70;;
24813;SDS011;12904;50.088;11.414;2023-11-21T02:29:18;3.10;;;1.70;;
24813;SDS011;12904;50.088;11.414;2023-11-21T02:31:47;5.50;;;1.60;;
24813;SDS011;12904;50.088;11.414;2023-11-21T02:34:19;2.78;;;1.60;;
24813;SDS011;12904;50.088;11.414;2023-11-21T02:36:45;5.95;;;1.58;;
24813;SDS011;12904;50.088;11.414;2023-11-21T02:39:12;8.07;;;2.33;;
24813;SDS011;12904;50.088;11.414;2023-11-21T02:41:38;5.10;;;3.20;;
24813;SDS011;12904;50.088;11.414;2023-11-21T02:44:04;6.30;;;3.03;;
24813;SDS011;12904;50.088;11.414;2023-11-21T02:46:33;3.60;;;2.20;;
24813;SDS011;12904;50.088;11.414;2023-11-21T02:49:03;9.70;;;2.30;;
24813;SDS011;12904;50.088;11.414;2023-11-21T02:53:56;8.35;;;2.70;;
24813;SDS011;12904;50.088;11.414;2023-11-21T02:56:25;3.97;;;2.58;;
24813;SDS011;12904;50.088;11.414;2023-11-21T02:58:55;3.70;;;2.20;;
24813;SDS011;12904;50.088;11.414;2023-11-21T03:01:21;3.78;;;2.47;;
24813;SDS011;12904;50.088;11.414;2023-11-21T03:03:48;5.65;;;2.60;;
24813;SDS011;12904;50.088;11.414;2023-11-21T03:06:16;6.85;;;3.33;;
24813;SDS011;12904;50.088;11.414;2023-11-21T03:08:45;11.88;;;3.13;;
24813;SDS011;12904;50.088;11.414;2023-11-21T03:11:11;6.90;;;2.60;;
24813;SDS011;12904;50.088;11.414;2023-11-21T03:13:38;10.18;;;3.03;;
24813;SDS011;12904;50.088;11.414;2023-11-21T03:16:06;5.05;;;2.30;;
24813;SDS011;12904;50.088;11.414;2023-11-21T03:18:33;3.97;;;2.38;;
24813;SDS011;12904;50.088;11.414;2023-11-21T03:20:59;17.88;;;8.00;;
24813;SDS011;12904;50.088;11.414;2023-11-21T03:23:24;7.53;;;4.57;;
24813;SDS011;12904;50.088;11.414;2023-11-21T03:25:50;7.82;;;3.60;;
24813;SDS011;12904;50.088;11.414;2023-11-21T03:28:16;9.18;;;4.18;;
24813;SDS011;12904;50.088;11.414;2023-11-21T03:30:41;6.22;;;3.05;;
24813;SDS011;12904;50.088;11.414;2023-11-21T03:33:07;9.23;;;2.75;;
24813;SDS011;12904;50.088;11.414;2023-11-21T03:35:32;5.88;;;3.10;;
24813;SDS011;12904;50.088;11.414;2023-11-21T03:37:58;6.40;;;2.78;;
24813;SDS011;12904;50.088;11.414;2023-11-21T03:40:24;7.93;;;3.17;;
24813;SDS011;12904;50.088;11.414;2023-11-21T03:42:49;8.30;;;2.65;;
24813;SDS011;12904;50.088;11.414;2023-11-21T03:45:15;5.93;;;2.80;;
24813;SDS011;12904;50.088;11.414;2023-11-21T03:47:41;5.30;;;3.33;;
24813;SDS011;12904;50.088;11.414;2023-11-21T03:50:07;4.47;;;3.13;;
24813;SDS011;12904;50.088;11.414;2023-11-21T03:52:37;4.97;;;3.78;;
24813;SDS011;12904;50.088;11.414;2023-11-21T03:55:02;12.38;;;5.30;;
24813;SDS011;12904;50.088;11.414;2023-11-21T03:57:29;9.07;;;6.28;;
24813;SDS011;12904;50.088;11.414;2023-11-21T03:59:54;17.83;;;7.63;;
24813;SDS011;12904;50.088;11.414;2023-11-21T04:02:20;30.95;;;8.68;;
24813;SDS011;12904;50.088;11.414;2023-11-21T04:04:46;7.18;;;5.20;;
24813;SDS011;12904;50.088;11.414;2023-11-21T04:07:12;9.27;;;5.03;;
24813;SDS011;12904;50.088;11.414;2023-11-21T04:09:38;9.48;;;4.80;;
24813;SDS011;12904;50.088;11.414;2023-11-21T04:12:07;6.13;;;4.03;;
24813;SDS011;12904;50.088;11.414;2023-11-21T04:14:34;12.40;;;4.53;;
24813;SDS011;12904;50.088;11.414;2023-11-21T04:17:00;10.32;;;5.63;;
24813;SDS011;12904;50.088;11.414;2023-11-21T04:19:26;16.20;;;4.90;;
24813;SDS011;12904;50.088;11.414;2023-11-21T04:21:51;8.48;;;4.43;;
24813;SDS011;12904;50.088;11.414;2023-11-21T04:24:17;13.27;;;6.00;;
24813;SDS011;12904;50.088;11.414;2023-11-21T04:26:45;9.60;;;4.95;;
24813;SDS011;12904;50.088;11.414;2023-11-21T04:29:11;19.55;;;6.80;;
24813;SDS011;12904;50.088;11.414;2023-11-21T04:31:37;10.68;;;5.38;;
24813;SDS011;12904;50.088;11.414;2023-11-21T04:34:03;12.45;;;4.88;;
24813;SDS011;12904;50.088;11.414;2023-11-21T04:36:31;19.85;;;5.45;;
24813;SDS011;12904;50.088;11.414;2023-11-21T04:38:57;13.18;;;5.32;;
24813;SDS011;12904;50.088;11.414;2023-11-21T04:41:23;7.03;;;5.10;;
24813;SDS011;12904;50.088;11.414;2023-11-21T04:43:48;7.18;;;4.35;;
24813;SDS011;12904;50.088;11.414;2023-11-21T04:46:14;7.68;;;4.63;;
24813;SDS011;12904;50.088;11.414;2023-11-21T04:48:40;11.88;;;4.85;;
24813;SDS011;12904;50.088;11.414;2023-11-21T04:51:06;5.68;;;4.65;;
24813;SDS011;12904;50.088;11.414;2023-11-21T04:53:32;11.25;;;5.13;;
24813;SDS011;12904;50.088;11.414;2023-11-21T04:55:57;12.75;;;4.22;;
24813;SDS011;12904;50.088;11.414;2023-11-21T04:58:23;9.50;;;4.47;;
24813;SDS011;12904;50.088;11.414;2023-11-21T05:00:49;7.20;;;5.20;;
24813;SDS011;12904;50.088;11.414;2023-11-21T05:03:15;6.05;;;4.70;;
24813;SDS011;12904;50.088;11.414;2023-11-21T05:05:40;5.00;;;4.20;;
24813;SDS011;12904;50.088;11.414;2023-11-21T05:08:06;8.45;;;4.15;;
24813;SDS011;12904;50.088;11.414;2023-11-21T05:10:31;7.88;;;4.57;;
24813;SDS011;12904;50.088;11.414;2023-11-21T05:12:57;11.63;;;5.05;;
24813;SDS011;12904;50.088;11.414;2023-11-21T05:15:23;12.73;;;5.13;;
24813;SDS011;12904;50.088;11.414;2023-11-21T05:17:50;14.68;;;5.90;;
24813;SDS011;12904;50.088;11.414;2023-11-21T05:20:17;10.05;;;4.90;;
24813;SDS011;12904;50.088;11.414;2023-11-21T05:22:46;14.32;;;5.63;;
24813;SDS011;12904;50.088;11.414;2023-11-21T05:25:13;7.15;;;5.15;;
24813;SDS011;12904;50.088;11.414;2023-11-21T05:27:39;6.80;;;5.75;;
24813;SDS011;12904;50.088;11.414;2023-11-21T05:30:04;6.68;;;5.55;;
24813;SDS011;12904;50.088;11.414;2023-11-21T05:32:34;9.45;;;5.97;;
24813;SDS011;12904;50.088;11.414;2023-11-21T05:34:59;9.85;;;5.60;;
24813;SDS011;12904;50.088;11.414;2023-11-21T05:37:26;10.93;;;6.03;;
24813;SDS011;12904;50.088;11.414;2023-11-21T05:39:52;15.63;;;6.65;;
24813;SDS011;12904;50.088;11.414;2023-11-21T05:42:19;9.75;;;5.68;;
24813;SDS011;12904;50.088;11.414;2023-11-21T05:44:45;10.15;;;7.53;;
24813;SDS011;12904;50.088;11.414;2023-11-21T05:47:11;16.38;;;7.90;;
24813;SDS011;12904;50.088;11.414;2023-11-21T05:49:38;11.73;;;8.07;;
24813;SDS011;12904;50.088;11.414;2023-11-21T05:52:04;12.82;;;7.47;;
24813;SDS011;12904;50.088;11.414;2023-11-21T05:54:30;11.75;;;7.70;;
24813;SDS011;12904;50.088;11.414;2023-11-21T05:56:56;13.93;;;7.13;;
24813;SDS011;12904;50.088;11.414;2023-11-21T05:59:23;14.20;;;7.85;;
24813;SDS011;12904;50.088;11.414;2023-11-21T06:01:50;13.32;;;7.95;;
24813;SDS011;12904;50.088;11.414;2023-11-21T06:04:15;9.63;;;6.38;;
24813;SDS011;12904;50.088;11.414;2023-11-21T06:06:41;18.35;;;7.30;;
24813;SDS011;12904;50.088;11.414;2023-11-21T06:09:07;10.32;;;6.25;;
24813;SDS011;12904;50.088;11.414;2023-11-21T06:11:34;19.15;;;6.50;;
24813;SDS011;12904;50.088;11.414;2023-11-21T06:14:00;11.85;;;6.53;;
24813;SDS011;12904;50.088;11.414;2023-11-21T06:16:26;11.80;;;6.22;;
24813;SDS011;12904;50.088;11.414;2023-11-21T06:18:52;14.88;;;5.60;;
24813;SDS011;12904;50.088;11.414;2023-11-21T06:21:18;16.00;;;6.13;;
24813;SDS011;12904;50.088;11.414;2023-11-21T06:23:44;18.15;;;6.05;;
24813;SDS011;12904;50.088;11.414;2023-11-21T06:26:09;15.43;;;6.15;;
24813;SDS011;12904;50.088;11.414;2023-11-21T06:28:35;22.58;;;5.80;;
24813;SDS011;12904;50.088;11.414;2023-11-21T06:31:01;16.52;;;6.13;;
24813;SDS011;12904;50.088;11.414;2023-11-21T06:33:31;12.38;;;6.15;;
24813;SDS011;12904;50.088;11.414;2023-11-21T06:35:57;10.52;;;5.43;;
24813;SDS011;12904;50.088;11.414;2023-11-21T06:38:22;10.27;;;6.35;;
24813;SDS011;12904;50.088;11.414;2023-11-21T06:40:48;15.25;;;6.35;;
24813;SDS011;12904;50.088;11.414;2023-11-21T06:43:14;9.80;;;6.47;;
24813;SDS011;12904;50.088;11.414;2023-11-21T06:45:40;25.70;;;6.97;;
24813;SDS011;12904;50.088;11.414;2023-11-21T06:48:05;21.65;;;8.88;;
24813;SDS011;12904;50.088;11.414;2023-11-21T06:50:31;23.05;;;10.20;;
24813;SDS011;12904;50.088;11.414;2023-11-21T06:52:57;27.42;;;12.27;;
24813;SDS011;12904;50.088;11.414;2023-11-21T06:55:22;17.73;;;10.75;;
24813;SDS011;12904;50.088;11.414;2023-11-21T06:57:48;24.92;;;13.93;;
24813;SDS011;12904;50.088;11.414;2023-11-21T07:00:15;32.25;;;12.93;;
24813;SDS011;12904;50.088;11.414;2023-11-21T07:02:42;30.73;;;13.43;;
24813;SDS011;12904;50.088;11.414;2023-11-21T07:05:08;23.95;;;13.75;;
24813;SDS011;12904;50.088;11.414;2023-11-21T07:07:34;25.92;;;14.10;;
24813;SDS011;12904;50.088;11.414;2023-11-21T07:10:02;22.80;;;12.48;;
24813;SDS011;12904;50.088;11.414;2023-11-21T07:12:28;22.35;;;12.38;;
24813;SDS011;12904;50.088;11.414;2023-11-21T07:14:56;25.73;;;12.93;;
24813;SDS011;12904;50.088;11.414;2023-11-21T07:17:22;27.52;;;14.20;;
24813;SDS011;12904;50.088;11.414;2023-11-21T07:19:48;27.70;;;14.70;;
24813;SDS011;12904;50.088;11.414;2023-11-21T07:22:15;18.83;;;11.88;;
24813;SDS011;12904;50.088;11.414;2023-11-21T07:24:47;20.15;;;12.93;;
24813;SDS011;12904;50.088;11.414;2023-11-21T07:27:16;39.80;;;14.80;;
24813;SDS011;12904;50.088;11.414;2023-11-21T07:29:42;26.55;;;14.32;;
24813;SDS011;12904;50.088;11.414;2023-11-21T07:32:08;27.45;;;15.70;;
24813;SDS011;12904;50.088;11.414;2023-11-21T07:34:34;46.90;;;18.98;;
24813;SDS011;12904;50.088;11.414;2023-11-21T07:37:01;48.08;;;20.20;;
24813;SDS011;12904;50.088;11.414;2023-11-21T07:39:27;25.42;;;13.65;;
24813;SDS011;12904;50.088;11.414;2023-11-21T07:41:53;18.40;;;12.88;;
24813;SDS011;12904;50.088;11.414;2023-11-21T07:44:19;30.42;;;13.32;;
24813;SDS011;12904;50.088;11.414;2023-11-21T07:46:45;23.48;;;12.30;;
24813;SDS011;12904;50.088;11.414;2023-11-21T07:49:11;15.07;;;12.00;;
24813;SDS011;12904;50.088;11.414;2023-11-21T07:51:40;16.52;;;10.30;;
24813;SDS011;12904;50.088;11.414;2023-11-21T07:54:06;15.15;;;11.15;;
24813;SDS011;12904;50.088;11.414;2023-11-21T07:56:32;18.15;;;11.32;;
24813;SDS011;12904;50.088;11.414;2023-11-21T07:58:58;11.98;;;10.27;;
24813;SDS011;12904;50.088;11.414;2023-11-21T08:01:24;20.75;;;11.48;;
24813;SDS011;12904;50.088;11.414;2023-11-21T08:03:50;15.75;;;10.00;;
24813;SDS011;12904;50.088;11.414;2023-11-21T08:06:17;16.83;;;9.55;;
24813;SDS011;12904;50.088;11.414;2023-11-21T08:08:43;10.63;;;9.52;;
24813;SDS011;12904;50.088;11.414;2023-11-21T08:11:09;28.00;;;11.63;;
24813;SDS011;12904;50.088;11.414;2023-11-21T08:13:36;18.13;;;10.27;;
24813;SDS011;12904;50.088;11.414;2023-11-21T08:16:01;15.20;;;9.55;;
24813;SDS011;12904;50.088;11.414;2023-11-21T08:18:29;16.73;;;9.45;;
24813;SDS011;12904;50.088;11.414;2023-11-21T08:20:55;14.45;;;9.18;;
24813;SDS011;12904;50.088;11.414;2023-11-21T08:23:21;14.85;;;9.15;;
24813;SDS011;12904;50.088;11.414;2023-11-21T08:25:50;12.52;;;9.75;;
24813;SDS011;12904;50.088;11.414;2023-11-21T08:28:16;14.48;;;9.40;;
24813;SDS011;12904;50.088;11.414;2023-11-21T08:30:42;12.80;;;9.32;;
24813;SDS011;12904;50.088;11.414;2023-11-21T08:33:08;12.57;;;7.85;;
24813;SDS011;12904;50.088;11.414;2023-11-21T08:35:34;14.38;;;8.43;;
24813;SDS011;12904;50.088;11.414;2023-11-21T08:38:01;13.65;;;9.05;;
24813;SDS011;12904;50.088;11.414;2023-11-21T08:40:27;9.82;;;8.57;;
24813;SDS011;12904;50.088;11.414;2023-11-21T08:42:53;13.02;;;8.40;;
24813;SDS011;12904;50.088;11.414;2023-11-21T08:45:19;10.13;;;8.30;;
24813;SDS011;12904;50.088;11.414;2023-11-21T08:47:46;9.13;;;8.23;;
24813;SDS011;12904;50.088;11.414;2023-11-21T08:50:12;9.32;;;7.88;;
24813;SDS011;12904;50.088;11.414;2023-11-21T08:52:39;8.68;;;7.28;;
24813;SDS011;12904;50.088;11.414;2023-11-21T08:55:05;13.50;;;8.38;;
24813;SDS011;12904;50.088;11.414;2023-11-21T08:57:37;21.15;;;8.90;;
24813;SDS011;12904;50.088;11.414;2023-11-21T09:00:04;11.25;;;8.77;;
24813;SDS011;12904;50.088;11.414;2023-11-21T09:02:36;15.45;;;8.70;;
24813;SDS011;12904;50.088;11.414;2023-11-21T09:05:02;13.05;;;8.35;;
24813;SDS011;12904;50.088;11.414;2023-11-21T09:07:29;10.75;;;7.82;;
24813;SDS011;12904;50.088;11.414;2023-11-21T09:09:55;12.68;;;8.35;;
24813;SDS011;12904;50.088;11.414;2023-11-21T09:12:21;13.85;;;7.50;;
24813;SDS011;12904;50.088;11.414;2023-11-21T09:14:47;9.38;;;8.35;;
24813;SDS011;12904;50.088;11.414;2023-11-21T09:17:15;12.40;;;7.53;;
24813;SDS011;12904;50.088;11.414;2023-11-21T09:19:40;10.45;;;7.10;;
24813;SDS011;12904;50.088;11.414;2023-11-21T09:22:06;11.68;;;7.28;;
24813;SDS011;12904;50.088;11.414;2023-11-21T09:24:33;8.60;;;7.30;;
24813;SDS011;12904;50.088;11.414;2023-11-21T09:26:59;10.27;;;7.25;;
24813;SDS011;12904;50.088;11.414;2023-11-21T09:29:25;8.50;;;7.57;;
24813;SDS011;12904;50.088;11.414;2023-11-21T09:31:51;10.38;;;7.45;;
24813;SDS011;12904;50.088;11.414;2023-11-21T09:34:17;9.07;;;8.05;;
24813;SDS011;12904;50.088;11.414;2023-11-21T09:36:46;7.90;;;6.88;;
24813;SDS011;12904;50.088;11.414;2023-11-21T09:39:12;10.15;;;7.43;;
24813;SDS011;12904;50.088;11.414;2023-11-21T09:44:13;11.43;;;7.63;;
24813;SDS011;12904;50.088;11.414;2023-11-21T09:46:42;11.00;;;7.15;;
24813;SDS011;12904;50.088;11.414;2023-11-21T09:49:09;7.15;;;6.45;;
24813;SDS011;12904;50.088;11.414;2023-11-21T09:51:42;11.73;;;7.30;;
24813;SDS011;12904;50.088;11.414;2023-11-21T09:54:08;6.40;;;5.07;;
24813;SDS011;12904;50.088;11.414;2023-11-21T09:56:37;5.20;;;4.53;;
24813;SDS011;12904;50.088;11.414;2023-11-21T09:59:03;4.03;;;3.63;;
24813;SDS011;12904;50.088;11.414;2023-11-21T10:01:32;3.55;;;3.25;;
24813;SDS011;12904;50.088;11.414;2023-11-21T10:04:00;3.05;;;2.13;;
24813;SDS011;12904;50.088;11.414;2023-11-21T10:06:26;3.30;;;2.58;;
24813;SDS011;12904;50.088;11.414;2023-11-21T10:08:54;2.33;;;1.30;;
24813;SDS011;12904;50.088;11.414;2023-11-21T10:11:23;1.35;;;1.20;;
24813;SDS011;12904;50.088;11.414;2023-11-21T10:13:54;4.95;;;1.88;;
24813;SDS011;12904;50.088;11.414;2023-11-21T10:16:22;2.38;;;1.67;;
24813;SDS011;12904;50.088;11.414;2023-11-21T10:18:52;2.35;;;2.15;;
24813;SDS011;12904;50.088;11.414;2023-11-21T10:21:21;4.60;;;2.30;;
24813;SDS011;12904;50.088;11.414;2023-11-21T10:23:46;1.95;;;1.55;;
24813;SDS011;12904;50.088;11.414;2023-11-21T10:26:12;4.00;;;2.92;;
24813;SDS011;12904;50.088;11.414;2023-11-21T10:29:02;2.67;;;2.20;;
24813;SDS011;12904;50.088;11.414;2023-11-21T10:31:30;3.42;;;1.67;;
24813;SDS011;12904;50.088;11.414;2023-11-21T10:34:11;3.33;;;2.45;;
24813;SDS011;12904;50.088;11.414;2023-11-21T10:36:40;10.75;;;8.80;;
24813;SDS011;12904;50.088;11.414;2023-11-21T10:39:06;3.47;;;2.95;;
24813;SDS011;12904;50.088;11.414;2023-11-21T10:41:32;3.60;;;2.25;;
24813;SDS011;12904;50.088;11.414;2023-11-21T10:43:59;8.68;;;2.75;;
24813;SDS011;12904;50.088;11.414;2023-11-21T10:46:25;3.17;;;1.50;;
24813;SDS011;12904;50.088;11.414;2023-11-21T10:48:55;2.00;;;1.42;;
24813;SDS011;12904;50.088;11.414;2023-11-21T10:51:21;3.22;;;1.50;;
24813;SDS011;12904;50.088;11.414;2023-11-21T10:53:49;3.70;;;2.40;;
24813;SDS011;12904;50.088;11.414;2023-11-21T10:56:16;1.52;;;1.35;;
24813;SDS011;12904;50.088;11.414;2023-11-21T10:58:45;3.03;;;1.30;;
24813;SDS011;12904;50.088;11.414;2023-11-21T11:01:11;2.35;;;1.30;;
24813;SDS011;12904;50.088;11.414;2023-11-21T11:03:39;3.47;;;1.23;;
24813;SDS011;12904;50.088;11.414;2023-11-21T11:06:06;4.18;;;1.67;;
24813;SDS011;12904;50.088;11.414;2023-11-21T11:08:36;3.15;;;1.17;;
24813;SDS011;12904;50.088;11.414;2023-11-21T11:11:04;5.18;;;1.98;;
24813;SDS011;12904;50.088;11.414;2023-11-21T11:13:34;3.30;;;1.42;;
24813;SDS011;12904;50.088;11.414;2023-11-21T11:16:01;2.83;;;1.38;;
24813;SDS011;12904;50.088;11.414;2023-11-21T11:18:28;2.30;;;0.90;;
24813;SDS011;12904;50.088;11.414;2023-11-21T11:20:54;2.45;;;1.20;;
24813;SDS011;12904;50.088;11.414;2023-11-21T11:34:33;2.38;;;1.25;;
24813;SDS011;12904;50.088;11.414;2023-11-21T11:37:18;3.50;;;1.40;;
24813;SDS011;12904;50.088;11.414;2023-11-21T11:39:45;4.80;;;1.65;;
24813;SDS011;12904;50.088;11.414;2023-11-21T11:42:14;2.47;;;1.35;;
24813;SDS011;12904;50.088;11.414;2023-11-21T11:47:16;2.22;;;1.20;;
24813;SDS011;12904;50.088;11.414;2023-11-21T11:50:10;3.80;;;1.58;;
24813;SDS011;12904;50.088;11.414;2023-11-21T11:52:45;4.03;;;1.38;;
24813;SDS011;12904;50.088;11.414;2023-11-21T11:55:13;2.47;;;1.27;;
24813;SDS011;12904;50.088;11.414;2023-11-21T11:57:43;4.07;;;1.33;;
24813;SDS011;12904;50.088;11.414;2023-11-21T12:02:41;3.67;;;1.40;;
24813;SDS011;12904;50.088;11.414;2023-11-21T12:05:13;3.90;;;2.05;;
24813;SDS011;12904;50.088;11.414;2023-11-21T12:10:28;5.10;;;1.95;;
24813;SDS011;12904;50.088;11.414;2023-11-21T12:12:56;7.15;;;3.55;;
24813;SDS011;12904;50.088;11.414;2023-11-21T12:15:23;5.93;;;1.80;;
24813;SDS011;12904;50.088;11.414;2023-11-21T12:17:50;6.05;;;1.90;;
24813;SDS011;12904;50.088;11.414;2023-11-21T12:20:20;5.15;;;3.17;;
24813;SDS011;12904;50.088;11.414;2023-11-21T12:22:47;5.80;;;2.35;;
24813;SDS011;12904;50.088;11.414;2023-11-21T12:25:17;5.18;;;3.45;;
24813;SDS011;12904;50.088;11.414;2023-11-21T12:27:45;5.22;;;3.88;;
24813;SDS011;12904;50.088;11.414;2023-11-21T12:30:12;6.57;;;2.17;;
24813;SDS011;12904;50.088;11.414;2023-11-21T12:32:42;5.10;;;2.30;;
24813;SDS011;12904;50.088;11.414;2023-11-21T12:35:09;4.07;;;3.13;;
24813;SDS011;12904;50.088;11.414;2023-11-21T12:37:39;10.68;;;2.95;;
24813;SDS011;12904;50.088;11.414;2023-11-21T12:40:06;3.92;;;2.72;;
24813;SDS011;12904;50.088;11.414;2023-11-21T12:42:44;5.40;;;3.58;;
24813;SDS011;12904;50.088;11.414;2023-11-21T12:47:53;6.63;;;2.90;;
24813;SDS011;12904;50.088;11.414;2023-11-21T12:50:29;8.60;;;2.50;;
24813;SDS011;12904;50.088;11.414;2023-11-21T12:52:59;15.93;;;5.47;;
24813;SDS011;12904;50.088;11.414;2023-11-21T12:55:37;6.45;;;3.00;;
24813;SDS011;12904;50.088;11.414;2023-11-21T12:58:06;5.82;;;2.45;;
24813;SDS011;12904;50.088;11.414;2023-11-21T13:00:42;4.28;;;2.13;;
24813;SDS011;12904;50.088;11.414;2023-11-21T13:03:11;4.85;;;2.00;;
24813;SDS011;12904;50.088;11.414;2023-11-21T13:05:42;3.38;;;2.20;;
24813;SDS011;12904;50.088;11.414;2023-11-21T13:08:12;8.20;;;2.53;;
24813;SDS011;12904;50.088;11.414;2023-11-21T13:10:42;8.35;;;3.00;;
24813;SDS011;12904;50.088;11.414;2023-11-21T13:13:12;5.25;;;3.22;;
24813;SDS011;12904;50.088;11.414;2023-11-21T13:15:47;5.97;;;2.13;;
24813;SDS011;12904;50.088;11.414;2023-11-21T13:18:14;6.20;;;2.10;;
24813;SDS011;12904;50.088;11.414;2023-11-21T13:20:40;6.75;;;2.28;;
24813;SDS011;12904;50.088;11.414;2023-11-21T13:23:08;4.78;;;2.25;;
24813;SDS011;12904;50.088;11.414;2023-11-21T13:25:37;3.85;;;2.38;;
24813;SDS011;12904;50.088;11.414;2023-11-21T13:28:05;5.40;;;2.42;;
24813;SDS011;12904;50.088;11.414;2023-11-21T13:30:31;5.30;;;1.67;;
24813;SDS011;12904;50.088;11.414;2023-11-21T13:33:00;5.40;;;2.20;;
24813;SDS011;12904;50.088;11.414;2023-11-21T13:35:33;6.20;;;1.88;;
24813;SDS011;12904;50.088;11.414;2023-11-21T13:38:08;4.22;;;1.67;;
24813;SDS011;12904;50.088;11.414;2023-11-21T13:40:37;4.05;;;1.80;;
24813;SDS011;12904;50.088;11.414;2023-11-21T13:43:15;6.28;;;2.20;;
24813;SDS011;12904;50.088;11.414;2023-11-21T13:45:43;7.35;;;5.88;;
24813;SDS011;12904;50.088;11.414;2023-11-21T13:48:10;6.85;;;2.70;;
24813;SDS011;12904;50.088;11.414;2023-11-21T13:50:39;8.65;;;2.30;;
24813;SDS011;12904;50.088;11.414;2023-11-21T13:53:11;10.63;;;2.15;;
24813;SDS011;12904;50.088;11.414;2023-11-21T13:55:47;8.10;;;2.30;;
24813;SDS011;12904;50.088;11.414;2023-11-21T13:58:14;8.52;;;2.75;;
24813;SDS011;12904;50.088;11.414;2023-11-21T14:00:47;6.47;;;2.65;;
24813;SDS011;12904;50.088;11.414;2023-11-21T14:03:21;6.18;;;2.40;;
24813;SDS011;12904;50.088;11.414;2023-11-21T14:06:03;8.68;;;3.88;;
24813;SDS011;12904;50.088;11.414;2023-11-21T14:08:34;5.43;;;2.50;;
24813;SDS011;12904;50.088;11.414;2023-11-21T14:10:59;7.95;;;2.60;;
24813;SDS011;12904;50.088;11.414;2023-11-21T14:13:25;9.00;;;5.35;;
24813;SDS011;12904;50.088;11.414;2023-11-21T14:15:52;8.80;;;2.85;;
24813;SDS011;12904;50.088;11.414;2023-11-21T14:18:23;6.68;;;3.08;;
24813;SDS011;12904;50.088;11.414;2023-11-21T14:20:55;9.27;;;2.25;;
24813;SDS011;12904;50.088;11.414;2023-11-21T14:23:21;9.50;;;2.70;;
24813;SDS011;12904;50.088;11.414;2023-11-21T14:25:48;5.10;;;2.10;;
24813;SDS011;12904;50.088;11.414;2023-11-21T14:28:15;3.47;;;1.83;;
24813;SDS011;12904;50.088;11.414;2023-11-21T14:30:40;10.48;;;3.65;;
24813;SDS011;12904;50.088;11.414;2023-11-21T14:33:07;11.63;;;5.07;;
24813;SDS011;12904;50.088;11.414;2023-11-21T14:35:34;6.32;;;4.50;;
24813;SDS011;12904;50.088;11.414;2023-11-21T14:38:00;7.28;;;5.05;;
24813;SDS011;12904;50.088;11.414;2023-11-21T14:40:29;9.90;;;3.80;;
24813;SDS011;12904;50.088;11.414;2023-11-21T14:43:01;7.28;;;4.22;;
24813;SDS011;12904;50.088;11.414;2023-11-21T14:45:31;7.25;;;4.10;;
24813;SDS011;12904;50.088;11.414;2023-11-21T14:48:00;10.95;;;4.25;;
24813;SDS011;12904;50.088;11.414;2023-11-21T14:50:33;5.50;;;4.35;;
24813;SDS011;12904;50.088;11.414;2023-11-21T14:53:10;6.90;;;3.80;;
24813;SDS011;12904;50.088;11.414;2023-11-21T14:55:37;9.45;;;3.95;;
24813;SDS011;12904;50.088;11.414;2023-11-21T14:58:18;12.35;;;3.85;;